Leonie — PHLE — position and weather

sailwx.info

Track history (hours):
 
Tides and Currents Weather Stations Pressure Air Temp Water Temp Dewpoint Dewpoint Depression Visibility Wind Speed Wind Dir Waves Ship Positions

Leonie

Last reported at 2017-Nov-20 00:15 UTC. Time now 2017-Nov-23 20:48 UTC.
Position N 48°39' W 002°01'.

Length 90 m; draft 5 m.

Type: Cargo ship. MMSI: 244772000.

Date/timePositionNaut miles runAvg speedWind from/ knotsBaromVisibWave heightAir tempDewpointWater temp
2017-Nov-20 00:15N 48°39' W 002°01'0 0.0
2017-Nov-19 23:57N 48°39' W 002°01'0 0.0
2017-Nov-19 23:21N 48°39' W 002°01'0 0.0
2017-Nov-19 22:39N 48°39' W 002°01'5 0.2
2017-Nov-18 16:44N 48°42' W 002°07'2 6.8
2017-Nov-18 16:29N 48°44' W 002°08'4511.2
2017-Nov-18 12:27N 49°21' W 002°45'511.3
2017-Nov-18 12:00N 49°26' W 002°49'611.4
2017-Nov-18 11:27N 49°32' W 002°52'1811.7
2017-Nov-18 09:54N 49°50' W 002°55'411.3
2017-Nov-18 09:30N 49°54' W 002°56'5 9.3
2017-Nov-18 08:59N 49°58' W 002°52'610.2
2017-Nov-18 08:23N 50°00' W 002°43'4 9.5
2017-Nov-18 07:56N 50°01' W 002°37'21 9.0
2017-Nov-18 05:40N 50°06' W 002°06'2 9.7
2017-Nov-18 05:25N 50°07' W 002°02'4 9.9
2017-Nov-18 05:00N 50°08' W 001°56'510.7
2017-Nov-18 04:30N 50°10' W 001°48'611.7
2017-Nov-18 04:00N 50°11' W 001°39'612.6
2017-Nov-18 03:30N 50°13' W 001°30'713.4
2017-Nov-18 02:57N 50°14' W 001°18'3413.8
2017-Nov-18 00:27N 50°23' W 000°26'612.7
2017-Nov-18 00:01N 50°24' W 000°18'612.1
2017-Nov-17 23:30N 50°26' W 000°08'611.7
2017-Nov-17 23:00N 50°28' E 000°00'611.1
2017-Nov-17 22:30N 50°29' E 000°09'510.6
2017-Nov-17 22:01N 50°31' E 000°17'510.1
2017-Nov-17 21:30N 50°32' E 000°24'5 9.7
2017-Nov-17 21:01N 50°34' E 000°31'5 9.4
2017-Nov-17 20:31N 50°36' E 000°38'5 9.7
2017-Nov-17 20:01N 50°39' E 000°45'510.3
2017-Nov-17 19:31N 50°41' E 000°51'611.2
2017-Nov-17 19:00N 50°45' E 000°59'612.3
2017-Nov-17 18:30N 50°48' E 001°07'712.9
2017-Nov-17 18:00N 50°53' E 001°14'713.7
2017-Nov-17 17:30N 50°58' E 001°22'713.6
2017-Nov-17 17:00N 51°02' E 001°29'713.3
2017-Nov-17 16:30N 51°07' E 001°37'612.6
2017-Nov-17 16:00N 51°12' E 001°44'611.7
2017-Nov-17 15:30N 51°16' E 001°49'611.1
2017-Nov-17 15:00N 51°21' E 001°54'510.6
2017-Nov-17 14:30N 51°25' E 001°59'510.1
2017-Nov-17 14:00N 51°29' E 002°03'510.0
2017-Nov-17 13:30N 51°33' E 002°09'253 9.7
2017-Nov-16 11:31N 54°01' E 007°48'210.4
2017-Nov-16 11:19N 54°01' E 007°51'310.4
2017-Nov-16 11:00N 54°01' E 007°57'510.3
2017-Nov-16 10:30N 54°01' E 008°06'510.1
2017-Nov-16 10:00N 54°01' E 008°14'5 9.8
2017-Nov-16 09:30N 53°59' E 008°22'5 9.2
2017-Nov-16 09:00N 53°58' E 008°30'4 8.5
2017-Nov-16 08:30N 53°57' E 008°37'4 7.8
2017-Nov-16 08:00N 53°55' E 008°41'4 8.0
2017-Nov-16 07:30N 53°51' E 008°45'5 9.3
2017-Nov-16 07:00N 53°51' E 008°53'510.9
2017-Nov-16 06:31N 53°52' E 009°02'4 8.7
2017-Nov-16 06:01N 53°54' E 009°09'0 0.0
2017-Nov-16 05:30N 53°54' E 009°09'0 0.8
2017-Nov-16 05:00N 53°54' E 009°09'0 0.0
2017-Nov-16 04:30N 53°54' E 009°09'0 0.0
2017-Nov-16 04:00N 53°54' E 009°09'0 0.0
2017-Nov-16 03:30N 53°54' E 009°09'0 0.0
2017-Nov-16 03:00N 53°54' E 009°09'0 0.0
2017-Nov-16 02:30N 53°54' E 009°09'1 1.9
2017-Nov-16 02:00N 53°55' E 009°10'3 5.3
2017-Nov-16 01:31N 53°57' E 009°13'2 4.1
2017-Nov-16 01:00N 53°58' E 009°16'4 8.3
2017-Nov-16 00:31N 54°02' E 009°18'4 7.7
2017-Nov-16 00:00N 54°06' E 009°20'3 5.6
2017-Nov-15 23:30N 54°09' E 009°21'4 8.0
2017-Nov-15 23:00N 54°10' E 009°27'4 8.6
2017-Nov-15 22:30N 54°12' E 009°34'4 7.3
2017-Nov-15 22:00N 54°15' E 009°37'2 3.1
2017-Nov-15 21:30N 54°17' E 009°38'3 6.9
2017-Nov-15 21:00N 54°19' E 009°43'1 1.4
2017-Nov-15 20:30N 54°19' E 009°43'1 1.4
2017-Nov-15 20:00N 54°20' E 009°44'2 4.5
2017-Nov-15 19:30N 54°21' E 009°47'4 7.8
2017-Nov-15 19:00N 54°21' E 009°53'17 5.0
2017-Nov-15 15:39N 54°30' E 010°18'210.6
2017-Nov-15 15:26N 54°31' E 010°22'410.4
2017-Nov-15 15:00N 54°32' E 010°29'510.5
2017-Nov-15 14:30N 54°34' E 010°37'510.6
2017-Nov-15 14:00N 54°35' E 010°46'510.6
2017-Nov-15 13:30N 54°35' E 010°55'510.4
2017-Nov-15 13:00N 54°36' E 011°04'510.2
2017-Nov-15 12:30N 54°35' E 011°13'510.1
2017-Nov-15 12:00N 54°33' E 011°21'510.1
2017-Nov-15 11:30N 54°31' E 011°29'510.7
2017-Nov-15 11:00N 54°30' E 011°38'510.7
2017-Nov-15 10:30N 54°28' E 011°47'511.1
2017-Nov-15 10:01N 54°27' E 011°56'510.8
2017-Nov-15 09:30N 54°27' E 012°06'7010.2
2017-Nov-15 02:40N 55°01' E 013°51'210.4
2017-Nov-15 02:27N 55°02' E 013°54'610.6
2017-Nov-15 01:53N 55°04' E 014°04'4 9.5
2017-Nov-15 01:30N 55°07' E 014°09'5 9.7
2017-Nov-15 01:00N 55°10' E 014°14'5 9.8
2017-Nov-15 00:30N 55°14' E 014°20'510.1
2017-Nov-15 00:00N 55°18' E 014°25'510.1
2017-Nov-14 23:30N 55°22' E 014°31'510.3
2017-Nov-14 23:00N 55°26' E 014°36'510.0
2017-Nov-14 22:27N 55°29' E 014°45'6 9.7
2017-Nov-14 21:53N 55°31' E 014°53'5 9.6
2017-Nov-14 21:20N 55°34' E 015°02'3 9.4
2017-Nov-14 21:00N 55°35' E 015°07'5 9.5
2017-Nov-14 20:30N 55°38' E 015°14'5 9.4
2017-Nov-14 20:00N 55°40' E 015°21'5 9.1
2017-Nov-14 19:30N 55°42' E 015°28'4 8.7
2017-Nov-14 19:00N 55°45' E 015°35'4 7.7
2017-Nov-14 18:30N 55°46' E 015°41'3 7.0
2017-Nov-14 18:00N 55°48' E 015°46'3 6.5
2017-Nov-14 17:30N 55°50' E 015°51'4 7.1
2017-Nov-14 17:00N 55°52' E 015°56'3 7.0
2017-Nov-14 16:30N 55°54' E 016°01'4 7.1
2017-Nov-14 16:00N 55°56' E 016°06'4 8.2
2017-Nov-14 15:30N 55°58' E 016°13'4 8.0
2017-Nov-14 15:00N 55°59' E 016°19'4 8.7
2017-Nov-14 14:30N 56°01' E 016°26'5 9.2
2017-Nov-14 14:00N 56°04' E 016°33'5 9.5
2017-Nov-14 13:30N 56°06' E 016°40'5 9.3
2017-Nov-14 13:00N 56°09' E 016°47'339 9.7
2017-Nov-13 02:00N 59°50' E 024°53'510.1
2017-Nov-13 01:30N 59°51' E 025°02'510.0
2017-Nov-13 01:00N 59°52' E 025°12'5 9.5
2017-Nov-13 00:30N 59°52' E 025°22'6 9.4
2017-Nov-12 23:51N 59°53' E 025°34'20 9.7
2017-Nov-12 21:49N 59°58' E 026°12'412.4
2017-Nov-12 21:30N 59°59' E 026°19'4 8.5
2017-Nov-12 21:01N 60°01' E 026°27'5 9.6
2017-Nov-12 20:30N 60°02' E 026°37'510.0
2017-Nov-12 20:01N 60°01' E 026°47'510.1
2017-Nov-12 19:30N 60°00' E 026°57'5 9.4
2017-Nov-12 19:01N 60°00' E 027°06'510.0
2017-Nov-12 18:30N 60°03' E 027°15'5 9.9
2017-Nov-12 18:01N 60°05' E 027°23'510.0
2017-Nov-12 17:31N 60°08' E 027°32'510.1
2017-Nov-12 17:00N 60°10' E 027°40'5 9.6
2017-Nov-12 16:31N 60°12' E 027°50'510.6
2017-Nov-12 16:01N 60°10' E 028°00'510.6
2017-Nov-12 15:30N 60°09' E 028°10'510.5
2017-Nov-12 15:00N 60°07' E 028°20'510.6
2017-Nov-12 14:31N 60°04' E 028°29'510.4
2017-Nov-12 14:00N 60°03' E 028°39'510.5
2017-Nov-12 13:30N 60°03' E 028°50'2210.5
2017-Nov-12 11:25N 60°01' E 029°34'410.5
2017-Nov-12 11:00N 59°59' E 029°42'4 7.7
2017-Nov-12 10:30N 59°57' E 029°47'1 0.0
2017-Nov-11 01:58N 59°56' E 029°47'3 5.9
2017-Nov-11 01:30N 59°59' E 029°46'1910.8
2017-Nov-10 23:45N 60°02' E 029°09'2 7.5
2017-Nov-10 23:25N 60°02' E 029°04'3 7.6
2017-Nov-10 22:59N 60°02' E 028°57'4 7.6
2017-Nov-10 22:30N 60°02' E 028°50'4 7.6
2017-Nov-10 22:01N 60°02' E 028°43'4 7.8
2017-Nov-10 21:30N 60°02' E 028°35'4 7.8
2017-Nov-10 21:00N 60°03' E 028°27'4 7.4
2017-Nov-10 20:30N 60°05' E 028°21'4 7.5
2017-Nov-10 20:00N 60°07' E 028°15'4 7.7
2017-Nov-10 19:30N 60°08' E 028°07'4 7.5
2017-Nov-10 19:00N 60°09' E 028°00'4 7.7
2017-Nov-10 18:30N 60°10' E 027°53'4 7.9
2017-Nov-10 18:00N 60°10' E 027°45'5 9.1
2017-Nov-10 17:30N 60°08' E 027°37'510.0
2017-Nov-10 17:00N 60°05' E 027°28'510.1
2017-Nov-10 16:30N 60°03' E 027°20'510.1
2017-Nov-10 16:00N 60°00' E 027°11'5 9.8
2017-Nov-10 15:30N 59°58' E 027°02'5 9.3
2017-Nov-10 15:00N 59°59' E 026°53'5 9.6
2017-Nov-10 14:31N 59°59' E 026°44'5 9.8
2017-Nov-10 14:00N 59°59' E 026°34'510.0
2017-Nov-10 13:30N 59°57' E 026°24'5 9.9
2017-Nov-10 13:00N 59°56' E 026°15'2810.2
2017-Nov-10 10:17N 59°49' E 025°21'310.3
2017-Nov-10 10:01N 59°49' E 025°16'510.3
2017-Nov-10 09:30N 59°48' E 025°05'510.4
2017-Nov-10 09:00N 59°47' E 024°55'510.1
2017-Nov-10 08:30N 59°46' E 024°46'510.3
2017-Nov-10 08:01N 59°43' E 024°36'510.5
2017-Nov-10 07:30N 59°41' E 024°27'510.4
2017-Nov-10 07:00N 59°39' E 024°18'610.5
2017-Nov-10 06:28N 59°36' E 024°08'510.8
2017-Nov-10 05:59N 59°34' E 023°58'610.1
2017-Nov-10 05:25N 59°31' E 023°48'910.0
2017-Nov-10 04:31N 59°27' E 023°32'  
Track history (hours):
 
Tides and Currents Weather Stations Pressure Air Temp Water Temp Dewpoint Dewpoint Depression Visibility Wind Speed Wind Dir Waves Ship Positions

Leonie

Last reported at 2017-Nov-20 00:15 UTC. Time now 2017-Nov-23 20:48 UTC.
Position N 48°39' W 002°01'.

Length 90 m; draft 5 m.

Type: Cargo ship. MMSI: 244772000.

Date/timePositionNaut miles runAvg speedWind from/ knotsBaromVisibWave heightAir tempDewpointWater temp
2017-Nov-20 00:15N 48°39' W 002°01'0 0.0
2017-Nov-19 23:57N 48°39' W 002°01'0 0.0
2017-Nov-19 23:21N 48°39' W 002°01'0 0.0
2017-Nov-19 22:39N 48°39' W 002°01'5 0.2
2017-Nov-18 16:44N 48°42' W 002°07'2 6.8
2017-Nov-18 16:29N 48°44' W 002°08'4511.2
2017-Nov-18 12:27N 49°21' W 002°45'511.3
2017-Nov-18 12:00N 49°26' W 002°49'611.4
2017-Nov-18 11:27N 49°32' W 002°52'1811.7
2017-Nov-18 09:54N 49°50' W 002°55'411.3
2017-Nov-18 09:30N 49°54' W 002°56'5 9.3
2017-Nov-18 08:59N 49°58' W 002°52'610.2
2017-Nov-18 08:23N 50°00' W 002°43'4 9.5
2017-Nov-18 07:56N 50°01' W 002°37'21 9.0
2017-Nov-18 05:40N 50°06' W 002°06'2 9.7
2017-Nov-18 05:25N 50°07' W 002°02'4 9.9
2017-Nov-18 05:00N 50°08' W 001°56'510.7
2017-Nov-18 04:30N 50°10' W 001°48'611.7
2017-Nov-18 04:00N 50°11' W 001°39'612.6
2017-Nov-18 03:30N 50°13' W 001°30'713.4
2017-Nov-18 02:57N 50°14' W 001°18'3413.8
2017-Nov-18 00:27N 50°23' W 000°26'612.7
2017-Nov-18 00:01N 50°24' W 000°18'612.1
2017-Nov-17 23:30N 50°26' W 000°08'611.7
2017-Nov-17 23:00N 50°28' E 000°00'611.1
2017-Nov-17 22:30N 50°29' E 000°09'510.6
2017-Nov-17 22:01N 50°31' E 000°17'510.1
2017-Nov-17 21:30N 50°32' E 000°24'5 9.7
2017-Nov-17 21:01N 50°34' E 000°31'5 9.4
2017-Nov-17 20:31N 50°36' E 000°38'5 9.7
2017-Nov-17 20:01N 50°39' E 000°45'510.3
2017-Nov-17 19:31N 50°41' E 000°51'611.2
2017-Nov-17 19:00N 50°45' E 000°59'612.3
2017-Nov-17 18:30N 50°48' E 001°07'712.9
2017-Nov-17 18:00N 50°53' E 001°14'713.7
2017-Nov-17 17:30N 50°58' E 001°22'713.6
2017-Nov-17 17:00N 51°02' E 001°29'713.3
2017-Nov-17 16:30N 51°07' E 001°37'612.6
2017-Nov-17 16:00N 51°12' E 001°44'611.7
2017-Nov-17 15:30N 51°16' E 001°49'611.1
2017-Nov-17 15:00N 51°21' E 001°54'510.6
2017-Nov-17 14:30N 51°25' E 001°59'510.1
2017-Nov-17 14:00N 51°29' E 002°03'510.0
2017-Nov-17 13:30N 51°33' E 002°09'253 9.7
2017-Nov-16 11:31N 54°01' E 007°48'210.4
2017-Nov-16 11:19N 54°01' E 007°51'310.4
2017-Nov-16 11:00N 54°01' E 007°57'510.3
2017-Nov-16 10:30N 54°01' E 008°06'510.1
2017-Nov-16 10:00N 54°01' E 008°14'5 9.8
2017-Nov-16 09:30N 53°59' E 008°22'5 9.2
2017-Nov-16 09:00N 53°58' E 008°30'4 8.5
2017-Nov-16 08:30N 53°57' E 008°37'4 7.8
2017-Nov-16 08:00N 53°55' E 008°41'4 8.0
2017-Nov-16 07:30N 53°51' E 008°45'5 9.3
2017-Nov-16 07:00N 53°51' E 008°53'510.9
2017-Nov-16 06:31N 53°52' E 009°02'4 8.7
2017-Nov-16 06:01N 53°54' E 009°09'0 0.0
2017-Nov-16 05:30N 53°54' E 009°09'0 0.8
2017-Nov-16 05:00N 53°54' E 009°09'0 0.0
2017-Nov-16 04:30N 53°54' E 009°09'0 0.0
2017-Nov-16 04:00N 53°54' E 009°09'0 0.0
2017-Nov-16 03:30N 53°54' E 009°09'0 0.0
2017-Nov-16 03:00N 53°54' E 009°09'0 0.0
2017-Nov-16 02:30N 53°54' E 009°09'1 1.9
2017-Nov-16 02:00N 53°55' E 009°10'3 5.3
2017-Nov-16 01:31N 53°57' E 009°13'2 4.1
2017-Nov-16 01:00N 53°58' E 009°16'4 8.3
2017-Nov-16 00:31N 54°02' E 009°18'4 7.7
2017-Nov-16 00:00N 54°06' E 009°20'3 5.6
2017-Nov-15 23:30N 54°09' E 009°21'4 8.0
2017-Nov-15 23:00N 54°10' E 009°27'4 8.6
2017-Nov-15 22:30N 54°12' E 009°34'4 7.3
2017-Nov-15 22:00N 54°15' E 009°37'2 3.1
2017-Nov-15 21:30N 54°17' E 009°38'3 6.9
2017-Nov-15 21:00N 54°19' E 009°43'1 1.4
2017-Nov-15 20:30N 54°19' E 009°43'1 1.4
2017-Nov-15 20:00N 54°20' E 009°44'2 4.5
2017-Nov-15 19:30N 54°21' E 009°47'4 7.8
2017-Nov-15 19:00N 54°21' E 009°53'17 5.0
2017-Nov-15 15:39N 54°30' E 010°18'210.6
2017-Nov-15 15:26N 54°31' E 010°22'410.4
2017-Nov-15 15:00N 54°32' E 010°29'510.5
2017-Nov-15 14:30N 54°34' E 010°37'510.6
2017-Nov-15 14:00N 54°35' E 010°46'510.6
2017-Nov-15 13:30N 54°35' E 010°55'510.4
2017-Nov-15 13:00N 54°36' E 011°04'510.2
2017-Nov-15 12:30N 54°35' E 011°13'510.1
2017-Nov-15 12:00N 54°33' E 011°21'510.1
2017-Nov-15 11:30N 54°31' E 011°29'510.7
2017-Nov-15 11:00N 54°30' E 011°38'510.7
2017-Nov-15 10:30N 54°28' E 011°47'511.1
2017-Nov-15 10:01N 54°27' E 011°56'510.8
2017-Nov-15 09:30N 54°27' E 012°06'7010.2
2017-Nov-15 02:40N 55°01' E 013°51'210.4
2017-Nov-15 02:27N 55°02' E 013°54'610.6
2017-Nov-15 01:53N 55°04' E 014°04'4 9.5
2017-Nov-15 01:30N 55°07' E 014°09'5 9.7
2017-Nov-15 01:00N 55°10' E 014°14'5 9.8
2017-Nov-15 00:30N 55°14' E 014°20'510.1
2017-Nov-15 00:00N 55°18' E 014°25'510.1
2017-Nov-14 23:30N 55°22' E 014°31'510.3
2017-Nov-14 23:00N 55°26' E 014°36'510.0
2017-Nov-14 22:27N 55°29' E 014°45'6 9.7
2017-Nov-14 21:53N 55°31' E 014°53'5 9.6
2017-Nov-14 21:20N 55°34' E 015°02'3 9.4
2017-Nov-14 21:00N 55°35' E 015°07'5 9.5
2017-Nov-14 20:30N 55°38' E 015°14'5 9.4
2017-Nov-14 20:00N 55°40' E 015°21'5 9.1
2017-Nov-14 19:30N 55°42' E 015°28'4 8.7
2017-Nov-14 19:00N 55°45' E 015°35'4 7.7
2017-Nov-14 18:30N 55°46' E 015°41'3 7.0
2017-Nov-14 18:00N 55°48' E 015°46'3 6.5
2017-Nov-14 17:30N 55°50' E 015°51'4 7.1
2017-Nov-14 17:00N 55°52' E 015°56'3 7.0
2017-Nov-14 16:30N 55°54' E 016°01'4 7.1
2017-Nov-14 16:00N 55°56' E 016°06'4 8.2
2017-Nov-14 15:30N 55°58' E 016°13'4 8.0
2017-Nov-14 15:00N 55°59' E 016°19'4 8.7
2017-Nov-14 14:30N 56°01' E 016°26'5 9.2
2017-Nov-14 14:00N 56°04' E 016°33'5 9.5
2017-Nov-14 13:30N 56°06' E 016°40'5 9.3
2017-Nov-14 13:00N 56°09' E 016°47'339 9.7
2017-Nov-13 02:00N 59°50' E 024°53'510.1
2017-Nov-13 01:30N 59°51' E 025°02'510.0
2017-Nov-13 01:00N 59°52' E 025°12'5 9.5
2017-Nov-13 00:30N 59°52' E 025°22'6 9.4
2017-Nov-12 23:51N 59°53' E 025°34'20 9.7
2017-Nov-12 21:49N 59°58' E 026°12'412.4
2017-Nov-12 21:30N 59°59' E 026°19'4 8.5
2017-Nov-12 21:01N 60°01' E 026°27'5 9.6
2017-Nov-12 20:30N 60°02' E 026°37'510.0
2017-Nov-12 20:01N 60°01' E 026°47'510.1
2017-Nov-12 19:30N 60°00' E 026°57'5 9.4
2017-Nov-12 19:01N 60°00' E 027°06'510.0
2017-Nov-12 18:30N 60°03' E 027°15'5 9.9
2017-Nov-12 18:01N 60°05' E 027°23'510.0
2017-Nov-12 17:31N 60°08' E 027°32'510.1
2017-Nov-12 17:00N 60°10' E 027°40'5 9.6
2017-Nov-12 16:31N 60°12' E 027°50'510.6
2017-Nov-12 16:01N 60°10' E 028°00'510.6
2017-Nov-12 15:30N 60°09' E 028°10'510.5
2017-Nov-12 15:00N 60°07' E 028°20'510.6
2017-Nov-12 14:31N 60°04' E 028°29'510.4
2017-Nov-12 14:00N 60°03' E 028°39'510.5
2017-Nov-12 13:30N 60°03' E 028°50'2210.5
2017-Nov-12 11:25N 60°01' E 029°34'410.5
2017-Nov-12 11:00N 59°59' E 029°42'4 7.7
2017-Nov-12 10:30N 59°57' E 029°47'1 0.0
2017-Nov-11 01:58N 59°56' E 029°47'3 5.9
2017-Nov-11 01:30N 59°59' E 029°46'1910.8
2017-Nov-10 23:45N 60°02' E 029°09'2 7.5
2017-Nov-10 23:25N 60°02' E 029°04'3 7.6
2017-Nov-10 22:59N 60°02' E 028°57'4 7.6
2017-Nov-10 22:30N 60°02' E 028°50'4 7.6
2017-Nov-10 22:01N 60°02' E 028°43'4 7.8
2017-Nov-10 21:30N 60°02' E 028°35'4 7.8
2017-Nov-10 21:00N 60°03' E 028°27'4 7.4
2017-Nov-10 20:30N 60°05' E 028°21'4 7.5
2017-Nov-10 20:00N 60°07' E 028°15'4 7.7
2017-Nov-10 19:30N 60°08' E 028°07'4 7.5
2017-Nov-10 19:00N 60°09' E 028°00'4 7.7
2017-Nov-10 18:30N 60°10' E 027°53'4 7.9
2017-Nov-10 18:00N 60°10' E 027°45'5 9.1
2017-Nov-10 17:30N 60°08' E 027°37'510.0
2017-Nov-10 17:00N 60°05' E 027°28'510.1
2017-Nov-10 16:30N 60°03' E 027°20'510.1
2017-Nov-10 16:00N 60°00' E 027°11'5 9.8
2017-Nov-10 15:30N 59°58' E 027°02'5 9.3
2017-Nov-10 15:00N 59°59' E 026°53'5 9.6
2017-Nov-10 14:31N 59°59' E 026°44'5 9.8
2017-Nov-10 14:00N 59°59' E 026°34'510.0
2017-Nov-10 13:30N 59°57' E 026°24'5 9.9
2017-Nov-10 13:00N 59°56' E 026°15'2810.2
2017-Nov-10 10:17N 59°49' E 025°21'310.3
2017-Nov-10 10:01N 59°49' E 025°16'510.3
2017-Nov-10 09:30N 59°48' E 025°05'510.4
2017-Nov-10 09:00N 59°47' E 024°55'510.1
2017-Nov-10 08:30N 59°46' E 024°46'510.3
2017-Nov-10 08:01N 59°43' E 024°36'510.5
2017-Nov-10 07:30N 59°41' E 024°27'510.4
2017-Nov-10 07:00N 59°39' E 024°18'610.5
2017-Nov-10 06:28N 59°36' E 024°08'510.8
2017-Nov-10 05:59N 59°34' E 023°58'610.1
2017-Nov-10 05:25N 59°31' E 023°48'910.0
2017-Nov-10 04:31N 59°27' E 023°32'  

Dump ship's entire track history